Time;durP1;ratioP1;P1;durP2;ratioP2;P2;SDS_P1;SDS_P2;PMS_P1;PMS_P2;Temp;Humidity;BMP_temperature;BMP_pressure;BME280_temperature;BME280_humidity;BME280_pressure;Samples;Min_cycle;Max_cycle;Signal;HPM_P1;HPM_P2
2023/10/11 00:03:15;;;;;;;9.17;5.73;;;16.80;99.90;;;;;;5065490;28;20732;-58
2023/10/11 00:05:44;;;;;;;7.30;5.50;;;16.80;99.90;;;;;;5077228;28;20838;-58
2023/10/11 00:08:13;;;;;;;8.30;5.93;;;16.80;99.90;;;;;;5078268;28;20514;-58
2023/10/11 00:10:47;;;;;;;7.50;6.30;;;16.80;99.90;;;;;;5078185;28;20776;-58
2023/10/11 00:13:16;;;;;;;8.50;6.50;;;16.80;99.90;;;;;;5078001;28;20462;-59
2023/10/11 00:15:50;;;;;;;10.10;6.00;;;16.70;99.90;;;;;;5078470;28;20461;-58
2023/10/11 00:18:19;;;;;;;7.67;5.57;;;16.70;99.90;;;;;;5078379;28;20465;-58
2023/10/11 00:20:51;;;;;;;7.03;5.60;;;16.70;99.90;;;;;;5077805;28;20560;-59
2023/10/11 00:23:22;;;;;;;8.30;6.30;;;16.60;99.90;;;;;;5078353;28;20786;-58
2023/10/11 00:25:51;;;;;;;7.73;5.90;;;16.70;99.90;;;;;;5078192;28;20798;-58
2023/10/11 00:28:23;;;;;;;9.70;6.10;;;16.60;99.90;;;;;;5078011;28;20461;-57
2023/10/11 00:30:52;;;;;;;9.93;6.23;;;16.60;99.90;;;;;;5077325;28;20934;-58
2023/10/11 00:33:19;;;;;;;9.67;5.97;;;16.70;99.90;;;;;;5077866;28;20556;-58
2023/10/11 00:35:48;;;;;;;9.13;6.60;;;16.70;99.90;;;;;;5077856;28;20461;-58
2023/10/11 00:38:18;;;;;;;7.60;6.40;;;16.70;99.90;;;;;;5078213;28;20465;-58
2023/10/11 00:41:00;;;;;;;8.43;5.10;;;16.70;99.90;;;;;;5077304;28;20461;-58
2023/10/11 00:43:35;;;;;;;9.00;5.60;;;16.70;99.90;;;;;;5077705;28;20466;-58
2023/10/11 00:46:08;;;;;;;9.53;5.60;;;16.60;99.90;;;;;;5077903;28;20539;-59
2023/10/11 00:48:37;;;;;;;10.70;6.60;;;16.60;99.90;;;;;;5077570;28;20556;-58
2023/10/11 00:51:07;;;;;;;7.40;5.50;;;16.60;99.90;;;;;;5077031;28;20576;-57
2023/10/11 00:53:35;;;;;;;8.00;5.70;;;16.60;99.90;;;;;;5077946;28;20794;-58
2023/10/11 00:56:05;;;;;;;7.50;6.10;;;16.60;99.90;;;;;;5078072;28;20443;-58
2023/10/11 00:58:33;;;;;;;12.20;6.97;;;16.60;99.90;;;;;;5076965;28;20453;-58
2023/10/11 01:01:03;;;;;;;10.40;5.80;;;16.60;99.90;;;;;;5077440;28;20453;-58
2023/10/11 01:03:32;;;;;;;10.80;6.47;;;16.50;99.90;;;;;;5077461;28;20920;-58
2023/10/11 01:06:00;;;;;;;8.90;5.93;;;16.60;99.90;;;;;;5077839;28;20461;-58
2023/10/11 01:08:29;;;;;;;8.77;5.77;;;16.60;99.90;;;;;;5077366;28;20493;-59
2023/10/11 01:10:58;;;;;;;8.80;6.53;;;16.40;99.90;;;;;;5076850;28;20546;-58
2023/10/11 01:13:25;;;;;;;9.83;6.77;;;16.40;99.90;;;;;;5077422;28;20457;-58
2023/10/11 01:15:52;;;;;;;10.90;6.80;;;16.30;99.90;;;;;;5077558;28;20457;-58
2023/10/11 01:18:21;;;;;;;8.30;6.10;;;16.20;99.90;;;;;;5077110;28;20464;-58
2023/10/11 01:20:51;;;;;;;8.73;5.60;;;16.20;1.00;;;;;;5076948;28;20459;-58
2023/10/11 01:23:18;;;;;;;8.27;5.60;;;16.20;1.00;;;;;;5077218;28;20458;-58
2023/10/11 01:25:45;;;;;;;13.83;6.73;;;16.20;1.00;;;;;;5077227;28;20461;-58
2023/10/11 01:28:12;;;;;;;12.03;5.97;;;16.20;1.00;;;;;;5076769;28;20822;-58
2023/10/11 01:30:41;;;;;;;10.03;6.20;;;16.20;1.00;;;;;;5076897;28;20729;-58
2023/10/11 01:33:09;;;;;;;7.83;6.00;;;16.20;1.00;;;;;;5076617;28;20547;-57
2023/10/11 01:35:38;;;;;;;11.83;7.07;;;16.20;1.00;;;;;;5077158;28;20882;-58
2023/10/11 01:38:07;;;;;;;9.73;6.93;;;16.20;1.00;;;;;;5077493;28;20467;-58
2023/10/11 01:40:34;;;;;;;9.50;6.23;;;16.20;1.00;;;;;;5076015;28;20461;-58
2023/10/11 01:43:03;;;;;;;9.83;6.50;;;16.10;1.00;;;;;;5076448;28;20457;-58
2023/10/11 01:45:33;;;;;;;11.47;6.00;;;16.10;1.00;;;;;;5076978;28;20885;-58
2023/10/11 01:48:03;;;;;;;7.73;5.90;;;16.20;1.00;;;;;;5077048;28;20497;-58
2023/10/11 01:50:30;;;;;;;8.37;6.03;;;16.20;1.00;;;;;;5077188;28;20537;-58
2023/10/11 01:52:57;;;;;;;10.33;6.30;;;16.10;1.00;;;;;;5076540;28;20540;-58
2023/10/11 01:55:26;;;;;;;11.57;6.70;;;16.10;1.00;;;;;;5076777;28;20500;-58
2023/10/11 01:57:53;;;;;;;12.23;7.13;;;16.20;1.00;;;;;;5077169;28;20466;-58
2023/10/11 02:00:24;;;;;;;9.07;6.40;;;16.10;1.00;;;;;;5076965;28;20467;-58
2023/10/11 02:02:55;;;;;;;10.63;6.23;;;16.10;1.00;;;;;;5076932;28;20763;-58
2023/10/11 02:05:23;;;;;;;8.93;6.37;;;16.10;1.00;;;;;;5076890;28;20531;-58
2023/10/11 02:07:51;;;;;;;8.47;6.60;;;16.10;1.00;;;;;;5080913;28;20753;-58
2023/10/11 02:10:26;;;;;;;9.93;6.47;;;16.00;1.00;;;;;;5080782;28;20583;-58
2023/10/11 02:12:57;;;;;;;9.73;5.93;;;16.10;1.00;;;;;;5080081;28;20516;-58
2023/10/11 02:15:28;;;;;;;7.70;6.90;;;16.10;1.00;;;;;;5080445;28;20501;-58
2023/10/11 02:17:56;;;;;;;9.40;6.50;;;16.20;1.00;;;;;;5080729;28;20891;-58
2023/10/11 02:20:23;;;;;;;13.37;7.37;;;16.10;1.00;;;;;;5080731;28;20453;-58
2023/10/11 02:22:52;;;;;;;9.43;6.40;;;16.10;1.00;;;;;;5080116;28;20454;-58
2023/10/11 02:25:24;;;;;;;9.20;6.70;;;16.10;1.00;;;;;;5080524;28;20861;-58
2023/10/11 02:27:52;;;;;;;12.97;6.43;;;16.00;1.00;;;;;;5080566;28;20822;-58
2023/10/11 02:30:24;;;;;;;10.93;7.73;;;16.00;1.00;;;;;;5080174;28;20556;-58
2023/10/11 02:32:52;;;;;;;8.17;6.10;;;16.00;1.00;;;;;;5079856;28;20475;-58
2023/10/11 02:35:20;;;;;;;14.33;7.07;;;15.90;1.00;;;;;;5080056;28;20500;-58
2023/10/11 02:37:48;;;;;;;11.37;7.00;;;15.90;1.00;;;;;;5080229;28;20514;-58
2023/10/11 02:40:22;;;;;;;12.43;6.93;;;16.00;1.00;;;;;;5079572;28;20508;-58
2023/10/11 02:42:51;;;;;;;12.53;7.57;;;15.90;1.00;;;;;;5079775;28;20480;-59
2023/10/11 02:45:21;;;;;;;16.53;7.53;;;15.90;1.00;;;;;;5080035;28;20879;-58
2023/10/11 02:47:49;;;;;;;12.63;7.90;;;16.00;1.00;;;;;;5080365;28;20461;-58
2023/10/11 02:50:22;;;;;;;11.00;6.60;;;16.00;1.00;;;;;;5079989;28;20909;-58
2023/10/11 02:52:58;;;;;;;10.63;6.37;;;15.90;1.00;;;;;;5079681;28;20501;-58
2023/10/11 02:55:27;;;;;;;9.77;6.90;;;15.90;1.00;;;;;;5080135;28;20519;-58
2023/10/11 02:58:06;;;;;;;12.10;7.63;;;15.80;1.00;;;;;;5079927;28;20783;-58
2023/10/11 03:00:36;;;;;;;14.17;7.33;;;15.80;1.00;;;;;;5079520;28;20465;-58
2023/10/11 03:03:07;;;;;;;11.47;7.90;;;15.80;1.00;;;;;;5079460;28;20461;-58
2023/10/11 03:05:37;;;;;;;11.57;6.80;;;15.80;1.00;;;;;;5079875;28;20500;-58
2023/10/11 03:08:15;;;;;;;11.20;6.80;;;15.80;1.00;;;;;;5079592;28;20756;-58
2023/10/11 03:10:52;;;;;;;10.00;6.67;;;15.80;1.00;;;;;;5079463;28;20902;-58
2023/10/11 03:13:24;;;;;;;10.17;6.63;;;15.80;1.00;;;;;;5079636;28;20492;-58
2023/10/11 03:15:55;;;;;;;13.90;6.77;;;15.90;1.00;;;;;;5079096;28;20561;-58
2023/10/11 03:18:31;;;;;;;10.60;6.70;;;15.90;1.00;;;;;;5078473;28;20519;-58
2023/10/11 03:21:07;;;;;;;19.70;7.10;;;15.80;1.00;;;;;;5079462;28;20460;-58
2023/10/11 03:23:37;;;;;;;11.90;7.00;;;15.90;1.00;;;;;;5079738;28;20511;-58
2023/10/11 03:26:16;;;;;;;10.30;7.27;;;15.90;1.00;;;;;;5079504;28;20473;-58
2023/10/11 03:28:44;;;;;;;11.83;7.33;;;15.90;1.00;;;;;;5079366;28;20469;-58
2023/10/11 03:31:13;;;;;;;13.10;7.10;;;15.90;1.00;;;;;;5079044;28;20944;-58
2023/10/11 03:33:41;;;;;;;10.10;6.37;;;16.00;1.00;;;;;;5079395;28;20469;-58
2023/10/11 03:36:18;;;;;;;11.20;6.83;;;16.00;1.00;;;;;;5079188;28;20460;-59
2023/10/11 03:38:52;;;;;;;9.90;7.00;;;16.00;1.00;;;;;;5079249;28;20893;-58
2023/10/11 03:41:27;;;;;;;11.50;7.20;;;15.90;1.00;;;;;;5079302;28;20916;-58
2023/10/11 03:44:00;;;;;;;9.60;6.30;;;16.00;1.00;;;;;;5079196;28;20436;-58
2023/10/11 03:46:33;;;;;;;9.40;6.77;;;16.00;1.00;;;;;;5078423;28;20436;-58
2023/10/11 03:49:32;;;;;;;11.87;6.73;;;16.00;1.00;;;;;;5078926;28;20947;-57
2023/10/11 03:51:58;;;;;;;10.57;6.30;;;16.00;99.90;;;;;;5078778;28;20497;-58
2023/10/11 03:54:25;;;;;;;13.60;6.97;;;16.00;1.00;;;;;;5078882;28;20460;-58
2023/10/11 03:56:53;;;;;;;11.87;6.93;;;16.10;1.00;;;;;;5078352;28;20457;-58
2023/10/11 03:59:21;;;;;;;12.67;6.00;;;16.10;1.00;;;;;;5078743;28;20497;-58
2023/10/11 04:01:50;;;;;;;11.43;6.20;;;16.10;99.90;;;;;;5078231;28;20457;-58
2023/10/11 04:04:17;;;;;;;12.63;6.67;;;16.00;99.90;;;;;;5078868;28;20458;-59
2023/10/11 04:06:50;;;;;;;10.77;7.50;;;16.00;99.90;;;;;;5078359;28;20480;-58
2023/10/11 04:09:32;;;;;;;9.90;6.40;;;16.00;99.90;;;;;;5078444;28;20539;-58
2023/10/11 04:12:00;;;;;;;11.90;6.00;;;15.90;99.90;;;;;;5078400;28;20493;-58
2023/10/11 04:14:39;;;;;;;11.40;6.57;;;15.80;99.90;;;;;;5078503;28;20937;-58
2023/10/11 04:17:10;;;;;;;10.53;6.90;;;15.80;99.90;;;;;;5078260;28;20515;-58
2023/10/11 04:19:40;;;;;;;9.07;7.00;;;15.80;99.90;;;;;;5078494;28;20461;-58
2023/10/11 04:22:16;;;;;;;13.47;6.97;;;15.70;99.90;;;;;;5078629;28;20462;-58
2023/10/11 04:24:45;;;;;;;12.73;6.50;;;15.70;99.90;;;;;;5077773;28;20468;-58
2023/10/11 04:29:57;;;;;;;11.23;6.90;;;15.80;99.90;;;;;;5077686;28;20436;-58
2023/10/11 04:32:41;;;;;;;14.33;6.93;;;15.80;99.90;;;;;;5078075;28;20464;-58
2023/10/11 04:35:21;;;;;;;11.80;7.43;;;15.80;99.90;;;;;;5078178;28;20508;-58
2023/10/11 04:37:54;;;;;;;13.33;6.57;;;15.80;99.90;;;;;;5077978;28;20518;-58
2023/10/11 04:40:35;;;;;;;12.60;6.80;;;15.90;99.90;;;;;;5077948;28;20794;-58
2023/10/11 04:43:07;;;;;;;9.90;6.00;;;15.90;99.90;;;;;;5077490;28;20457;-58
2023/10/11 04:45:44;;;;;;;12.77;6.60;;;15.90;99.90;;;;;;5077598;28;20895;-58
2023/10/11 04:48:15;;;;;;;9.77;6.20;;;15.90;99.90;;;;;;5077525;28;20501;-58
2023/10/11 04:50:47;;;;;;;13.63;7.40;;;15.90;99.90;;;;;;5077596;28;20464;-58
2023/10/11 04:53:18;;;;;;;8.13;6.63;;;15.90;99.90;;;;;;5076181;28;20494;-58
2023/10/11 04:55:48;;;;;;;9.97;6.67;;;15.90;99.90;;;;;;5076290;28;20946;-57
2023/10/11 04:58:40;;;;;;;10.83;6.70;;;15.80;99.90;;;;;;5076243;28;20465;-56
2023/10/11 05:01:08;;;;;;;10.30;5.90;;;15.80;99.90;;;;;;5076199;28;20465;-57
2023/10/11 05:03:38;;;;;;;7.63;5.93;;;15.90;99.90;;;;;;5075942;28;20474;-57
2023/10/11 05:06:15;;;;;;;8.10;6.73;;;15.90;99.90;;;;;;5076934;28;20507;-58
2023/10/11 05:11:36;;;;;;;15.93;7.03;;;15.80;99.90;;;;;;5076898;28;20437;-58
2023/10/11 05:14:28;;;;;;;10.50;7.03;;;15.80;99.90;;;;;;5077560;28;20460;-58
2023/10/11 05:16:59;;;;;;;9.23;6.20;;;15.80;99.90;;;;;;5077321;28;20462;-58
2023/10/11 05:19:34;;;;;;;10.47;6.40;;;15.70;99.90;;;;;;5077457;28;20467;-58
2023/10/11 05:22:03;;;;;;;9.50;5.67;;;15.80;99.90;;;;;;5077461;28;20856;-58
2023/10/11 05:24:43;;;;;;;8.33;5.80;;;15.80;99.90;;;;;;5077395;28;20461;-58
2023/10/11 05:27:36;;;;;;;9.53;6.60;;;15.80;99.90;;;;;;5077366;28;20510;-58
2023/10/11 05:30:06;;;;;;;11.47;7.00;;;15.90;99.90;;;;;;5077540;28;20482;-58
2023/10/11 05:32:41;;;;;;;9.60;5.90;;;15.80;99.90;;;;;;5076849;28;20492;-58
2023/10/11 05:35:19;;;;;;;8.10;6.10;;;15.90;99.90;;;;;;5077324;28;20795;-58
2023/10/11 05:51:33;;;;;;;10.67;5.53;;;15.70;99.90;;;;;;5076730;28;20487;-58
2023/10/11 05:54:04;;;;;;;10.07;6.03;;;15.80;99.90;;;;;;5076614;28;20467;-58
2023/10/11 05:56:33;;;;;;;12.77;6.93;;;15.80;99.90;;;;;;5077613;28;20458;-58
2023/10/11 05:59:04;;;;;;;9.00;5.83;;;15.80;99.90;;;;;;5076851;28;20496;-58
2023/10/11 06:01:34;;;;;;;11.57;5.70;;;15.80;99.90;;;;;;5077315;28;20465;-58
2023/10/11 06:04:03;;;;;;;12.43;7.40;;;15.90;99.90;;;;;;5077200;28;20468;-58
2023/10/11 06:06:38;;;;;;;12.17;7.40;;;15.90;99.90;;;;;;5077283;28;20516;-58
2023/10/11 06:09:08;;;;;;;12.17;6.43;;;15.90;99.90;;;;;;5076694;28;20488;-58
2023/10/11 06:11:38;;;;;;;12.33;6.47;;;16.00;99.90;;;;;;5077239;28;20457;-58
2023/10/11 06:14:07;;;;;;;11.53;6.00;;;16.00;99.90;;;;;;5076829;28;20493;-58
2023/10/11 06:16:37;;;;;;;14.70;6.77;;;16.10;99.90;;;;;;5076804;28;20860;-58
2023/10/11 06:19:17;;;;;;;9.77;6.60;;;16.10;99.90;;;;;;5076962;28;20810;-58
2023/10/11 06:21:57;;;;;;;9.30;5.90;;;16.20;99.90;;;;;;5077031;28;20457;-58
2023/10/11 06:24:25;;;;;;;7.73;4.70;;;16.30;53.50;;;;;;5077294;28;20853;-58
2023/10/11 06:26:56;;;;;;;10.90;6.67;;;16.30;30.50;;;;;;5076848;28;20534;-58
2023/10/11 06:29:25;;;;;;;12.33;6.70;;;16.30;13.20;;;;;;5077306;28;20469;-58
2023/10/11 06:31:54;;;;;;;11.13;5.50;;;16.40;5.70;;;;;;5076790;28;20510;-58
2023/10/11 06:34:25;;;;;;;7.70;5.73;;;16.40;55.80;;;;;;5076845;28;20445;-58
2023/10/11 06:36:55;;;;;;;11.67;6.43;;;16.50;1.00;;;;;;5076577;28;20766;-58
2023/10/11 06:42:13;;;;;;;9.57;5.50;;;16.50;7.60;;;;;;5075404;28;20754;-58
2023/10/11 06:44:40;;;;;;;9.30;6.10;;;16.60;1.00;;;;;;5075188;28;20886;-59
2023/10/11 06:47:11;;;;;;;10.43;6.30;;;16.70;2.50;;;;;;5075283;28;20460;-58
2023/10/11 06:49:44;;;;;;;10.77;5.70;;;16.70;1.60;;;;;;5073102;28;20453;-58
2023/10/11 06:52:15;;;;;;;10.60;5.50;;;16.80;1.00;;;;;;5076714;28;20456;-58
2023/10/11 06:54:46;;;;;;;10.73;6.13;;;16.90;1.00;;;;;;5078182;28;20461;-59
2023/10/11 06:57:16;;;;;;;9.67;6.47;;;16.90;1.00;;;;;;5079165;28;20461;-58
2023/10/11 06:59:44;;;;;;;9.70;5.87;;;17.00;1.00;;;;;;5080105;28;20938;-58
2023/10/11 07:02:25;;;;;;;8.60;5.30;;;17.00;1.00;;;;;;5077570;28;20457;-58
2023/10/11 07:04:52;;;;;;;12.10;6.37;;;17.10;1.00;;;;;;5078387;28;20736;-59
2023/10/11 07:07:23;;;;;;;10.23;6.23;;;17.20;1.00;;;;;;5078529;28;20461;-57
2023/10/11 07:09:57;;;;;;;11.80;6.00;;;17.30;1.00;;;;;;5078303;28;20918;-59
2023/10/11 07:12:39;;;;;;;9.73;5.83;;;17.40;1.00;;;;;;5078471;28;20766;-58
2023/10/11 07:15:09;;;;;;;14.13;5.83;;;17.60;1.00;;;;;;5078186;28;20496;-59
2023/10/11 07:17:37;;;;;;;13.00;6.30;;;17.70;1.00;;;;;;5079142;28;20510;-59
2023/10/11 07:20:29;;;;;;;8.97;6.27;;;17.80;1.00;;;;;;5079431;28;20496;-59
2023/10/11 07:22:57;;;;;;;13.63;5.80;;;17.90;1.00;;;;;;5077870;28;20454;-58
2023/10/11 07:25:37;;;;;;;8.13;5.60;;;18.00;1.00;;;;;;5078855;28;20519;-59
2023/10/11 07:28:05;;;;;;;7.80;6.40;;;18.00;1.00;;;;;;5079088;28;20460;-61
2023/10/11 07:30:37;;;;;;;8.87;5.43;;;18.00;1.00;;;;;;5079554;28;21553;-58
2023/10/11 07:33:05;;;;;;;10.73;6.20;;;18.10;1.00;;;;;;5079374;28;20500;-59
2023/10/11 07:35:33;;;;;;;11.37;6.10;;;18.20;1.00;;;;;;5079603;28;20457;-59
2023/10/11 07:38:03;;;;;;;6.97;5.27;;;18.40;1.00;;;;;;5079655;28;20468;-59
2023/10/11 07:40:42;;;;;;;10.93;5.83;;;18.40;99.90;;;;;;5078280;28;20453;-57
2023/10/11 07:43:15;;;;;;;15.63;5.97;;;18.60;1.00;;;;;;5077592;28;20530;-58
2023/10/11 07:45:47;;;;;;;22.00;7.23;;;18.80;1.00;;;;;;5077913;28;20461;-58
2023/10/11 07:48:16;;;;;;;8.20;5.80;;;18.90;1.00;;;;;;5077854;28;20756;-62
2023/10/11 07:50:46;;;;;;;7.80;5.13;;;19.00;99.90;;;;;;5077059;28;20465;-58
2023/10/11 07:53:15;;;;;;;9.30;5.20;;;19.10;99.90;;;;;;5078002;28;20563;-58
2023/10/11 07:55:45;;;;;;;7.93;5.50;;;19.30;99.90;;;;;;5077815;28;20461;-59
2023/10/11 07:58:12;;;;;;;11.40;5.83;;;19.40;99.90;;;;;;5078055;28;20821;-59
2023/10/11 08:00:42;;;;;;;10.50;5.80;;;19.50;99.90;;;;;;5077799;28;20457;-59
2023/10/11 08:03:11;;;;;;;9.00;5.87;;;19.60;99.90;;;;;;5076639;28;20461;-58
2023/10/11 08:05:45;;;;;;;7.47;5.83;;;19.70;99.90;;;;;;5077298;28;20802;-59
2023/10/11 08:08:14;;;;;;;9.47;5.07;;;19.70;99.90;;;;;;5077081;28;20458;-58
2023/10/11 08:10:45;;;;;;;9.20;5.10;;;19.80;99.90;;;;;;5077074;28;20961;-58
2023/10/11 08:13:23;;;;;;;8.90;5.00;;;20.00;99.90;;;;;;5077250;28;20489;-58
2023/10/11 08:15:56;;;;;;;10.90;5.90;;;20.00;99.90;;;;;;5077977;28;20468;-59
2023/10/11 08:18:26;;;;;;;8.93;5.73;;;20.10;99.90;;;;;;5078845;28;20502;-60
2023/10/11 08:20:53;;;;;;;8.57;5.83;;;20.20;99.90;;;;;;5078079;28;20564;-59
2023/10/11 08:23:31;;;;;;;8.60;5.83;;;20.20;99.90;;;;;;5078130;28;20468;-59
2023/10/11 08:26:05;;;;;;;8.53;5.90;;;20.20;99.90;;;;;;5078366;28;20461;-59
2023/10/11 08:28:35;;;;;;;8.67;5.70;;;20.40;99.90;;;;;;5078059;28;20555;-59
2023/10/11 08:31:04;;;;;;;11.43;5.90;;;20.50;99.90;;;;;;5077998;28;20461;-59
2023/10/11 08:33:31;;;;;;;7.73;5.10;;;20.60;99.90;;;;;;5078005;28;20584;-59
2023/10/11 08:35:59;;;;;;;10.63;6.00;;;20.70;99.90;;;;;;5077513;28;20453;-59
2023/10/11 08:38:27;;;;;;;10.10;5.70;;;20.80;99.90;;;;;;5078416;28;20523;-59
2023/10/11 08:40:59;;;;;;;6.80;5.13;;;20.90;99.90;;;;;;5077682;28;20462;-59
2023/10/11 08:43:28;;;;;;;9.60;5.57;;;21.00;99.90;;;;;;5077979;28;20460;-59
2023/10/11 08:46:05;;;;;;;11.30;5.63;;;21.00;26.90;;;;;;5078078;28;20952;-60
2023/10/11 08:48:38;;;;;;;7.40;5.30;;;21.20;25.40;;;;;;5078336;28;20749;-59
2023/10/11 08:51:10;;;;;;;9.73;5.60;;;21.30;26.20;;;;;;5077620;28;20578;-59
2023/10/11 08:53:39;;;;;;;11.20;5.23;;;21.40;1.00;;;;;;5078021;28;20942;-58
2023/10/11 08:56:09;;;;;;;6.70;4.83;;;21.30;1.00;;;;;;5077938;28;20453;-59
2023/10/11 08:58:38;;;;;;;10.40;5.80;;;21.10;1.00;;;;;;5077496;28;20457;-59
2023/10/11 09:01:07;;;;;;;10.50;5.93;;;21.30;1.00;;;;;;5077441;28;20555;-59
2023/10/11 09:03:39;;;;;;;10.30;5.73;;;21.60;1.00;;;;;;5077854;28;20453;-60
2023/10/11 09:06:20;;;;;;;10.40;5.70;;;21.50;1.00;;;;;;5078006;28;20464;-61
2023/10/11 09:08:48;;;;;;;8.47;5.70;;;21.60;1.00;;;;;;5077296;28;20481;-59
2023/10/11 09:11:28;;;;;;;8.50;5.97;;;21.70;1.00;;;;;;5077269;28;20468;-59
2023/10/11 09:14:11;;;;;;;10.23;5.67;;;21.70;1.00;;;;;;5077054;28;20467;-59
2023/10/11 09:16:38;;;;;;;10.63;5.43;;;21.90;1.00;;;;;;5076351;28;20479;-58
2023/10/11 09:19:09;;;;;;;6.63;5.17;;;21.90;1.00;;;;;;5072560;28;20472;-59
2023/10/11 09:21:37;;;;;;;13.23;6.07;;;22.10;1.00;;;;;;5076451;28;20910;-65
2023/10/11 09:24:22;;;;;;;7.40;5.80;;;22.00;1.00;;;;;;5077779;28;20552;-59
2023/10/11 09:27:18;;;;;;;7.57;5.30;;;22.20;1.00;;;;;;5077495;28;20457;-59
2023/10/11 09:29:48;;;;;;;9.53;6.50;;;22.50;99.90;;;;;;5075189;28;20558;-59
2023/10/11 09:32:19;;;;;;;10.13;5.97;;;22.50;1.00;;;;;;5074876;28;20480;-60
2023/10/11 09:34:47;;;;;;;7.73;5.30;;;22.60;99.90;;;;;;5074845;28;20493;-61
2023/10/11 09:37:15;;;;;;;9.73;5.57;;;22.60;99.90;;;;;;5075858;28;20455;-59
2023/10/11 09:39:43;;;;;;;7.60;5.00;;;22.90;99.90;;;;;;5074131;28;20473;-59
2023/10/11 09:42:15;;;;;;;7.10;5.67;;;23.00;99.90;;;;;;5075661;28;20477;-59
2023/10/11 09:44:45;;;;;;;7.40;5.70;;;23.20;99.90;;;;;;5074535;28;20469;-60
2023/10/11 09:47:17;;;;;;;9.03;5.20;;;23.30;99.90;;;;;;5075745;28;20468;-60
2023/10/11 09:49:46;;;;;;;8.90;5.93;;;23.20;99.90;;;;;;5074628;28;20477;-59
2023/10/11 09:52:16;;;;;;;10.67;5.57;;;23.10;99.90;;;;;;5061624;28;20440;-59
2023/10/11 09:54:44;;;;;;;14.57;5.50;;;23.20;99.90;;;;;;5076936;28;20493;-59
2023/10/11 09:57:30;;;;;;;6.57;5.47;;;23.20;99.90;;;;;;5075961;28;20467;-60
2023/10/11 10:00:12;;;;;;;10.37;6.50;;;22.90;99.90;;;;;;5076391;28;20562;-59
2023/10/11 10:02:44;;;;;;;8.57;6.10;;;23.00;99.90;;;;;;5075248;28;20522;-60
2023/10/11 10:05:12;;;;;;;9.97;6.07;;;23.10;99.90;;;;;;5076473;28;20465;-60
2023/10/11 10:07:45;;;;;;;8.50;5.27;;;23.00;99.90;;;;;;5077280;28;20480;-59
2023/10/11 10:10:15;;;;;;;11.07;5.90;;;23.20;99.90;;;;;;5076719;28;20512;-59
2023/10/11 10:12:43;;;;;;;7.90;5.23;;;23.30;99.90;;;;;;5076610;28;20457;-59
2023/10/11 10:15:20;;;;;;;11.73;5.43;;;23.50;99.90;;;;;;5076314;28;20532;-60
2023/10/11 10:18:20;;;;;;;9.70;5.80;;;23.50;99.90;;;;;;5076873;28;20538;-60
2023/10/11 10:21:01;;;;;;;11.83;6.40;;;23.50;99.90;;;;;;5075454;28;20457;-58
2023/10/11 10:23:30;;;;;;;6.80;5.93;;;23.80;99.90;;;;;;5076276;28;20921;-60
2023/10/11 10:26:38;;;;;;;10.80;6.00;;;23.80;99.90;;;;;;5075560;28;20508;-59
2023/10/11 10:29:07;;;;;;;9.23;5.73;;;24.00;99.90;;;;;;5079729;28;20526;-60
2023/10/11 10:31:34;;;;;;;9.20;6.03;;;24.00;99.90;;;;;;5080524;28;20457;-61
2023/10/11 10:34:29;;;;;;;9.70;5.33;;;23.90;99.90;;;;;;5080052;28;20929;-61
2023/10/11 10:37:05;;;;;;;7.90;5.60;;;24.10;99.90;;;;;;5079871;28;20460;-60
2023/10/11 10:39:48;;;;;;;8.70;6.00;;;24.30;99.90;;;;;;5080081;28;20496;-60
2023/10/11 10:42:17;;;;;;;9.57;6.17;;;24.40;99.90;;;;;;5078832;28;20579;-60
2023/10/11 10:44:51;;;;;;;11.97;5.80;;;24.60;99.90;;;;;;5078742;28;20536;-59
2023/10/11 10:47:31;;;;;;;10.53;5.60;;;24.70;99.90;;;;;;5080145;28;20506;-60
2023/10/11 10:50:06;;;;;;;9.97;6.00;;;24.70;99.90;;;;;;5079797;28;20614;-60
2023/10/11 10:52:34;;;;;;;10.83;6.30;;;24.80;99.90;;;;;;5079445;28;20451;-59
2023/10/11 10:55:04;;;;;;;9.53;6.37;;;24.90;99.90;;;;;;5078885;28;20489;-59
2023/10/11 10:57:32;;;;;;;6.37;5.70;;;25.10;99.90;;;;;;5079099;28;20461;-60
2023/10/11 11:00:05;;;;;;;9.37;5.67;;;25.10;99.90;;;;;;5078623;28;20752;-61
2023/10/11 11:02:35;;;;;;;10.30;5.50;;;24.50;99.90;;;;;;5078788;28;20461;-58
2023/10/11 11:05:09;;;;;;;9.80;6.90;;;24.30;99.90;;;;;;5078222;28;20567;-61
2023/10/11 11:07:37;;;;;;;7.87;6.07;;;24.30;99.90;;;;;;5077689;28;20461;-59
2023/10/11 11:10:06;;;;;;;9.30;6.60;;;24.40;99.90;;;;;;5077935;28;20477;-60
2023/10/11 11:12:32;;;;;;;7.27;5.53;;;24.20;99.90;;;;;;5078062;28;20453;-61
2023/10/11 11:15:00;;;;;;;11.80;5.90;;;24.10;99.90;;;;;;5078808;28;20493;-59
2023/10/11 11:17:46;;;;;;;6.90;5.70;;;24.40;99.90;;;;;;5079694;28;20890;-60
2023/10/11 11:20:14;;;;;;;13.17;6.67;;;24.70;99.90;;;;;;5079774;28;20468;-60
2023/10/11 11:22:46;;;;;;;8.27;5.50;;;24.70;99.90;;;;;;5079493;28;20748;-59
2023/10/11 11:25:26;;;;;;;9.17;6.50;;;24.90;99.90;;;;;;5078672;28;20479;-60
2023/10/11 11:28:14;;;;;;;9.57;5.70;;;25.00;99.90;;;;;;5079480;28;20559;-59
2023/10/11 11:30:43;;;;;;;10.93;6.03;;;25.00;99.90;;;;;;5079235;28;20514;-60
2023/10/11 11:33:28;;;;;;;8.50;5.73;;;24.90;99.90;;;;;;5079307;28;20461;-59
2023/10/11 11:35:55;;;;;;;10.33;6.00;;;24.90;99.90;;;;;;5079491;28;20464;-59
2023/10/11 11:38:24;;;;;;;9.20;5.30;;;24.80;99.90;;;;;;5078483;28;20501;-59
2023/10/11 11:40:51;;;;;;;8.73;5.33;;;24.80;99.90;;;;;;5078796;28;20461;-59
2023/10/11 11:43:20;;;;;;;13.20;6.40;;;25.20;99.90;;;;;;5078347;28;20464;-60
2023/10/11 11:45:47;;;;;;;14.33;6.20;;;25.40;99.90;;;;;;5078834;28;20453;-59
2023/10/11 11:48:23;;;;;;;8.40;5.87;;;25.10;88.10;;;;;;5077352;28;20557;-59
2023/10/11 11:50:51;;;;;;;14.07;5.87;;;25.10;80.20;;;;;;5077746;28;20456;-59
2023/10/11 11:53:18;;;;;;;9.70;6.17;;;25.40;91.60;;;;;;5076651;28;20894;-58
2023/10/11 11:55:47;;;;;;;10.60;6.33;;;25.60;63.40;;;;;;5077753;28;20485;-58
2023/10/11 11:58:16;;;;;;;12.60;6.20;;;25.80;67.40;;;;;;5077259;28;20914;-60
2023/10/11 12:00:59;;;;;;;13.30;5.63;;;25.90;92.70;;;;;;5077816;28;20461;-60
2023/10/11 12:03:26;;;;;;;14.50;6.23;;;26.10;85.40;;;;;;5078116;28;20461;-59
2023/10/11 12:05:53;;;;;;;8.80;5.20;;;25.80;47.90;;;;;;5078652;28;20453;-59
2023/10/11 12:08:20;;;;;;;7.23;5.10;;;25.70;44.20;;;;;;5078479;28;20485;-59
2023/10/11 12:10:50;;;;;;;10.60;6.53;;;25.40;22.00;;;;;;5078346;28;20755;-60
2023/10/11 12:13:22;;;;;;;12.97;6.73;;;25.40;21.70;;;;;;5078151;28;20909;-59
2023/10/11 12:15:54;;;;;;;12.43;6.30;;;25.30;23.70;;;;;;5077940;28;20528;-59
2023/10/11 12:18:25;;;;;;;11.70;5.57;;;25.30;28.60;;;;;;5077147;28;20465;-58
2023/10/11 12:20:57;;;;;;;11.73;6.23;;;25.50;24.50;;;;;;5077256;28;20461;-59
2023/10/11 12:23:24;;;;;;;11.30;5.30;;;25.60;27.40;;;;;;5077620;28;20874;-59
2023/10/11 12:25:54;;;;;;;13.60;5.60;;;25.60;20.70;;;;;;5077676;28;20523;-60
2023/10/11 12:28:25;;;;;;;9.40;5.87;;;25.60;20.90;;;;;;5077853;28;20897;-57
2023/10/11 12:30:54;;;;;;;12.80;5.27;;;25.60;28.60;;;;;;5069740;28;20499;-59
2023/10/11 12:33:21;;;;;;;12.43;6.40;;;25.40;18.60;;;;;;5077646;28;20468;-59
2023/10/11 12:35:49;;;;;;;8.20;5.83;;;25.20;19.20;;;;;;5077769;28;20583;-59
2023/10/11 12:38:16;;;;;;;8.87;6.70;;;25.40;16.60;;;;;;5077862;28;20470;-58
2023/10/11 12:40:45;;;;;;;16.13;6.23;;;25.50;42.70;;;;;;5077751;28;20461;-57
2023/10/11 12:43:14;;;;;;;11.30;6.10;;;25.50;23.30;;;;;;5076849;28;20457;-59
2023/10/11 12:45:43;;;;;;;9.90;6.20;;;25.70;24.30;;;;;;5078279;28;20899;-59
2023/10/11 12:48:11;;;;;;;18.13;6.77;;;25.60;24.00;;;;;;5078264;28;20461;-59
2023/10/11 12:50:38;;;;;;;12.87;6.60;;;25.80;41.70;;;;;;5076357;28;20489;-59
2023/10/11 12:53:12;;;;;;;11.73;7.20;;;25.60;26.30;;;;;;5076468;28;20461;-59
2023/10/11 12:55:43;;;;;;;14.43;6.33;;;25.80;33.40;;;;;;5075974;28;20496;-59
2023/10/11 12:58:13;;;;;;;7.60;5.50;;;26.00;41.30;;;;;;5060005;28;20561;-59
2023/10/11 13:00:49;;;;;;;13.77;6.90;;;26.00;43.00;;;;;;5055823;28;20461;-59
2023/10/11 13:03:24;;;;;;;14.13;6.30;;;26.20;49.00;;;;;;5055332;28;20462;-59
2023/10/11 13:05:53;;;;;;;12.27;6.13;;;26.10;35.60;;;;;;5063867;28;20465;-57
2023/10/11 13:08:24;;;;;;;11.73;6.27;;;26.10;29.40;;;;;;5075737;28;20552;-59
2023/10/11 13:10:52;;;;;;;15.30;5.77;;;26.00;30.00;;;;;;5074651;28;20471;-59
2023/10/11 13:13:21;;;;;;;13.10;6.70;;;25.90;23.10;;;;;;5075233;28;20910;-59
2023/10/11 13:16:00;;;;;;;12.97;6.30;;;26.10;38.30;;;;;;5077007;28;20547;-60
2023/10/11 13:18:28;;;;;;;13.73;6.63;;;26.00;41.40;;;;;;5076621;28;20891;-59
2023/10/11 13:20:56;;;;;;;9.97;6.23;;;26.10;32.20;;;;;;5075430;28;20834;-59
2023/10/11 13:23:28;;;;;;;14.17;6.47;;;26.10;31.40;;;;;;5076007;28;20464;-59
2023/10/11 13:25:59;;;;;;;14.93;6.30;;;26.10;37.60;;;;;;5077040;28;20467;-59
2023/10/11 13:28:29;;;;;;;12.27;6.63;;;26.00;24.70;;;;;;5077335;28;20461;-59
2023/10/11 13:31:00;;;;;;;18.17;6.73;;;25.90;25.90;;;;;;5076257;28;20458;-59
2023/10/11 13:33:30;;;;;;;14.90;6.20;;;25.60;18.90;;;;;;5077098;28;20465;-59